sensor_id;sensor_type;location;lat;lon;timestamp;temperature;humidity
27492;DHT22;14927;51.210;6.838;2023-08-08T00:01:15;20.10;55.70
27492;DHT22;14927;51.210;6.838;2023-08-08T00:04:00;20.10;55.90
27492;DHT22;14927;51.210;6.838;2023-08-08T00:06:44;20.00;55.90
27492;DHT22;14927;51.210;6.838;2023-08-08T00:09:29;20.00;56.10
27492;DHT22;14927;51.210;6.838;2023-08-08T00:12:14;20.00;56.20
27492;DHT22;14927;51.210;6.838;2023-08-08T00:14:58;20.00;56.30
27492;DHT22;14927;51.210;6.838;2023-08-08T00:17:43;20.00;56.40
27492;DHT22;14927;51.210;6.838;2023-08-08T00:20:27;19.90;56.50
27492;DHT22;14927;51.210;6.838;2023-08-08T00:23:12;19.90;56.60
27492;DHT22;14927;51.210;6.838;2023-08-08T00:25:57;19.80;56.60
27492;DHT22;14927;51.210;6.838;2023-08-08T00:28:41;19.80;56.60
27492;DHT22;14927;51.210;6.838;2023-08-08T00:31:26;19.80;56.70
27492;DHT22;14927;51.210;6.838;2023-08-08T00:34:10;19.80;56.70
27492;DHT22;14927;51.210;6.838;2023-08-08T00:36:55;19.80;57.40
27492;DHT22;14927;51.210;6.838;2023-08-08T00:39:40;19.70;56.70
27492;DHT22;14927;51.210;6.838;2023-08-08T00:42:29;19.70;56.70
27492;DHT22;14927;51.210;6.838;2023-08-08T00:45:14;19.60;56.70
27492;DHT22;14927;51.210;6.838;2023-08-08T00:47:58;19.60;56.60
27492;DHT22;14927;51.210;6.838;2023-08-08T00:50:43;19.60;56.70
27492;DHT22;14927;51.210;6.838;2023-08-08T00:53:31;19.50;56.70
27492;DHT22;14927;51.210;6.838;2023-08-08T00:56:16;19.50;56.70
27492;DHT22;14927;51.210;6.838;2023-08-08T00:59:02;19.50;56.70
27492;DHT22;14927;51.210;6.838;2023-08-08T01:01:47;19.50;56.80
27492;DHT22;14927;51.210;6.838;2023-08-08T01:04:32;19.40;56.80
27492;DHT22;14927;51.210;6.838;2023-08-08T01:07:52;19.40;56.80
27492;DHT22;14927;51.210;6.838;2023-08-08T01:10:39;19.40;57.10
27492;DHT22;14927;51.210;6.838;2023-08-08T01:13:26;19.40;56.90
27492;DHT22;14927;51.210;6.838;2023-08-08T01:16:13;19.30;57.00
27492;DHT22;14927;51.210;6.838;2023-08-08T01:18:58;19.30;57.00
27492;DHT22;14927;51.210;6.838;2023-08-08T01:21:44;19.30;57.00
27492;DHT22;14927;51.210;6.838;2023-08-08T01:24:30;19.30;57.20
27492;DHT22;14927;51.210;6.838;2023-08-08T01:27:17;19.30;57.30
27492;DHT22;14927;51.210;6.838;2023-08-08T01:30:02;19.20;57.30
27492;DHT22;14927;51.210;6.838;2023-08-08T01:32:48;19.20;57.30
27492;DHT22;14927;51.210;6.838;2023-08-08T01:35:37;19.20;57.40
27492;DHT22;14927;51.210;6.838;2023-08-08T01:38:33;19.10;57.50
27492;DHT22;14927;51.210;6.838;2023-08-08T01:41:22;19.10;57.50
27492;DHT22;14927;51.210;6.838;2023-08-08T01:44:07;19.10;57.50
27492;DHT22;14927;51.210;6.838;2023-08-08T01:46:53;19.10;57.70
27492;DHT22;14927;51.210;6.838;2023-08-08T01:49:38;19.10;57.80
27492;DHT22;14927;51.210;6.838;2023-08-08T01:52:23;19.10;57.90
27492;DHT22;14927;51.210;6.838;2023-08-08T01:55:08;19.00;58.00
27492;DHT22;14927;51.210;6.838;2023-08-08T01:57:53;19.00;58.10
27492;DHT22;14927;51.210;6.838;2023-08-08T02:00:37;19.00;58.20
27492;DHT22;14927;51.210;6.838;2023-08-08T02:03:22;18.90;58.20
27492;DHT22;14927;51.210;6.838;2023-08-08T02:06:06;18.90;58.30
27492;DHT22;14927;51.210;6.838;2023-08-08T02:08:51;18.90;58.30
27492;DHT22;14927;51.210;6.838;2023-08-08T02:11:36;18.90;58.40
27492;DHT22;14927;51.210;6.838;2023-08-08T02:14:20;18.90;58.40
27492;DHT22;14927;51.210;6.838;2023-08-08T02:17:05;18.90;58.40
27492;DHT22;14927;51.210;6.838;2023-08-08T02:19:50;18.90;58.50
27492;DHT22;14927;51.210;6.838;2023-08-08T02:22:34;18.90;58.50
27492;DHT22;14927;51.210;6.838;2023-08-08T02:25:19;18.90;58.50
27492;DHT22;14927;51.210;6.838;2023-08-08T02:28:04;18.90;58.60
27492;DHT22;14927;51.210;6.838;2023-08-08T02:30:49;18.90;58.60
27492;DHT22;14927;51.210;6.838;2023-08-08T02:33:33;18.90;58.60
27492;DHT22;14927;51.210;6.838;2023-08-08T02:36:18;18.80;58.60
27492;DHT22;14927;51.210;6.838;2023-08-08T02:39:03;18.80;58.70
27492;DHT22;14927;51.210;6.838;2023-08-08T02:41:47;18.80;58.60
27492;DHT22;14927;51.210;6.838;2023-08-08T02:44:32;18.80;58.70
27492;DHT22;14927;51.210;6.838;2023-08-08T02:47:17;18.80;58.80
27492;DHT22;14927;51.210;6.838;2023-08-08T02:50:01;18.80;58.80
27492;DHT22;14927;51.210;6.838;2023-08-08T02:52:46;18.80;58.90
27492;DHT22;14927;51.210;6.838;2023-08-08T02:55:30;18.80;58.90
27492;DHT22;14927;51.210;6.838;2023-08-08T02:58:15;18.80;59.00
27492;DHT22;14927;51.210;6.838;2023-08-08T03:00:59;18.80;59.00
27492;DHT22;14927;51.210;6.838;2023-08-08T03:03:44;18.80;59.10
27492;DHT22;14927;51.210;6.838;2023-08-08T03:06:29;18.80;59.10
27492;DHT22;14927;51.210;6.838;2023-08-08T03:09:13;18.70;59.10
27492;DHT22;14927;51.210;6.838;2023-08-08T03:11:58;18.80;59.20
27492;DHT22;14927;51.210;6.838;2023-08-08T03:14:43;18.80;59.30
27492;DHT22;14927;51.210;6.838;2023-08-08T03:17:27;18.80;59.30
27492;DHT22;14927;51.210;6.838;2023-08-08T03:20:12;18.70;59.40
27492;DHT22;14927;51.210;6.838;2023-08-08T03:22:57;18.70;59.40
27492;DHT22;14927;51.210;6.838;2023-08-08T03:25:41;18.70;59.40
27492;DHT22;14927;51.210;6.838;2023-08-08T03:28:26;18.70;59.50
27492;DHT22;14927;51.210;6.838;2023-08-08T03:31:10;18.70;59.60
27492;DHT22;14927;51.210;6.838;2023-08-08T03:33:55;18.70;59.70
27492;DHT22;14927;51.210;6.838;2023-08-08T03:36:41;18.70;59.80
27492;DHT22;14927;51.210;6.838;2023-08-08T03:39:26;18.70;59.80
27492;DHT22;14927;51.210;6.838;2023-08-08T03:42:10;18.70;59.80
27492;DHT22;14927;51.210;6.838;2023-08-08T03:44:55;18.70;59.90
27492;DHT22;14927;51.210;6.838;2023-08-08T03:47:40;18.70;60.00
27492;DHT22;14927;51.210;6.838;2023-08-08T03:50:24;18.70;60.10
27492;DHT22;14927;51.210;6.838;2023-08-08T03:53:09;18.70;60.10
27492;DHT22;14927;51.210;6.838;2023-08-08T03:55:54;18.70;60.20
27492;DHT22;14927;51.210;6.838;2023-08-08T03:58:38;18.70;60.30
27492;DHT22;14927;51.210;6.838;2023-08-08T04:01:23;18.70;60.40
27492;DHT22;14927;51.210;6.838;2023-08-08T04:04:07;18.70;60.50
27492;DHT22;14927;51.210;6.838;2023-08-08T04:06:52;18.70;60.50
27492;DHT22;14927;51.210;6.838;2023-08-08T04:09:37;18.80;60.60
27492;DHT22;14927;51.210;6.838;2023-08-08T04:12:21;18.70;60.60
27492;DHT22;14927;51.210;6.838;2023-08-08T04:15:06;18.70;60.70
27492;DHT22;14927;51.210;6.838;2023-08-08T04:17:51;18.70;60.90
27492;DHT22;14927;51.210;6.838;2023-08-08T04:20:36;18.70;61.10
27492;DHT22;14927;51.210;6.838;2023-08-08T04:23:20;18.70;61.20
27492;DHT22;14927;51.210;6.838;2023-08-08T04:26:06;18.70;61.40
27492;DHT22;14927;51.210;6.838;2023-08-08T04:28:51;18.70;61.50
27492;DHT22;14927;51.210;6.838;2023-08-08T04:31:36;18.70;61.60
27492;DHT22;14927;51.210;6.838;2023-08-08T04:34:21;18.70;61.70
27492;DHT22;14927;51.210;6.838;2023-08-08T04:37:06;18.70;61.80
27492;DHT22;14927;51.210;6.838;2023-08-08T04:39:51;18.70;61.90
27492;DHT22;14927;51.210;6.838;2023-08-08T04:42:35;18.70;62.00
27492;DHT22;14927;51.210;6.838;2023-08-08T04:45:20;18.70;62.10
27492;DHT22;14927;51.210;6.838;2023-08-08T04:48:05;18.70;62.20
27492;DHT22;14927;51.210;6.838;2023-08-08T04:50:50;18.70;62.40
27492;DHT22;14927;51.210;6.838;2023-08-08T04:53:34;18.70;62.50
27492;DHT22;14927;51.210;6.838;2023-08-08T04:56:19;18.70;62.70
27492;DHT22;14927;51.210;6.838;2023-08-08T04:59:04;18.70;62.80
27492;DHT22;14927;51.210;6.838;2023-08-08T05:01:48;18.70;62.80
27492;DHT22;14927;51.210;6.838;2023-08-08T05:04:33;18.70;62.80
27492;DHT22;14927;51.210;6.838;2023-08-08T05:07:17;18.70;62.90
27492;DHT22;14927;51.210;6.838;2023-08-08T05:10:03;18.70;62.90
27492;DHT22;14927;51.210;6.838;2023-08-08T05:12:48;18.70;62.90
27492;DHT22;14927;51.210;6.838;2023-08-08T05:15:32;18.70;63.10
27492;DHT22;14927;51.210;6.838;2023-08-08T05:18:17;18.70;63.20
27492;DHT22;14927;51.210;6.838;2023-08-08T05:21:14;18.80;64.10
27492;DHT22;14927;51.210;6.838;2023-08-08T05:24:23;18.70;63.60
27492;DHT22;14927;51.210;6.838;2023-08-08T05:27:08;18.80;63.30
27492;DHT22;14927;51.210;6.838;2023-08-08T05:29:53;18.80;63.40
27492;DHT22;14927;51.210;6.838;2023-08-08T05:32:37;18.80;63.60
27492;DHT22;14927;51.210;6.838;2023-08-08T05:35:22;18.80;63.70
27492;DHT22;14927;51.210;6.838;2023-08-08T05:38:07;18.80;63.80
27492;DHT22;14927;51.210;6.838;2023-08-08T05:40:51;18.80;63.80
27492;DHT22;14927;51.210;6.838;2023-08-08T05:43:36;18.80;63.80
27492;DHT22;14927;51.210;6.838;2023-08-08T05:46:20;18.90;63.90
27492;DHT22;14927;51.210;6.838;2023-08-08T05:49:06;18.90;64.10
27492;DHT22;14927;51.210;6.838;2023-08-08T05:51:50;18.90;64.00
27492;DHT22;14927;51.210;6.838;2023-08-08T05:54:35;18.90;64.00
27492;DHT22;14927;51.210;6.838;2023-08-08T05:57:19;18.90;64.10
27492;DHT22;14927;51.210;6.838;2023-08-08T06:00:05;18.90;64.10
27492;DHT22;14927;51.210;6.838;2023-08-08T06:02:54;19.00;64.10
27492;DHT22;14927;51.210;6.838;2023-08-08T06:05:39;19.00;64.10
27492;DHT22;14927;51.210;6.838;2023-08-08T06:08:23;19.00;64.50
27492;DHT22;14927;51.210;6.838;2023-08-08T06:11:08;19.00;64.00
27492;DHT22;14927;51.210;6.838;2023-08-08T06:13:52;19.10;64.00
27492;DHT22;14927;51.210;6.838;2023-08-08T06:16:38;19.00;63.90
27492;DHT22;14927;51.210;6.838;2023-08-08T06:19:23;19.10;64.00
27492;DHT22;14927;51.210;6.838;2023-08-08T06:22:08;19.10;63.80
27492;DHT22;14927;51.210;6.838;2023-08-08T06:24:52;19.10;63.80
27492;DHT22;14927;51.210;6.838;2023-08-08T06:27:37;19.10;63.80
27492;DHT22;14927;51.210;6.838;2023-08-08T06:30:22;19.10;63.80
27492;DHT22;14927;51.210;6.838;2023-08-08T06:33:06;19.20;63.80
27492;DHT22;14927;51.210;6.838;2023-08-08T06:35:51;19.20;63.60
27492;DHT22;14927;51.210;6.838;2023-08-08T06:38:35;19.20;63.50
27492;DHT22;14927;51.210;6.838;2023-08-08T06:41:20;19.20;63.50
27492;DHT22;14927;51.210;6.838;2023-08-08T06:44:06;19.20;63.50
27492;DHT22;14927;51.210;6.838;2023-08-08T06:46:51;19.20;63.50
27492;DHT22;14927;51.210;6.838;2023-08-08T06:49:36;19.20;63.50
27492;DHT22;14927;51.210;6.838;2023-08-08T06:52:22;19.30;63.60
27492;DHT22;14927;51.210;6.838;2023-08-08T06:55:07;19.30;63.50
27492;DHT22;14927;51.210;6.838;2023-08-08T06:57:52;19.30;63.50
27492;DHT22;14927;51.210;6.838;2023-08-08T07:00:36;19.30;63.40
27492;DHT22;14927;51.210;6.838;2023-08-08T07:03:21;19.30;63.30
27492;DHT22;14927;51.210;6.838;2023-08-08T07:06:06;19.30;63.40
27492;DHT22;14927;51.210;6.838;2023-08-08T07:08:50;19.40;63.50
27492;DHT22;14927;51.210;6.838;2023-08-08T07:11:35;19.40;63.30
27492;DHT22;14927;51.210;6.838;2023-08-08T07:14:20;19.40;63.20
27492;DHT22;14927;51.210;6.838;2023-08-08T07:17:04;19.40;63.00
27492;DHT22;14927;51.210;6.838;2023-08-08T07:19:49;19.50;63.10
27492;DHT22;14927;51.210;6.838;2023-08-08T07:22:34;19.50;63.00
27492;DHT22;14927;51.210;6.838;2023-08-08T07:25:18;19.50;63.00
27492;DHT22;14927;51.210;6.838;2023-08-08T07:28:03;19.50;63.00
27492;DHT22;14927;51.210;6.838;2023-08-08T07:30:48;19.60;63.00
27492;DHT22;14927;51.210;6.838;2023-08-08T07:33:32;19.60;63.80
27492;DHT22;14927;51.210;6.838;2023-08-08T07:36:17;19.60;63.00
27492;DHT22;14927;51.210;6.838;2023-08-08T07:39:02;19.70;63.10
27492;DHT22;14927;51.210;6.838;2023-08-08T07:41:46;19.70;62.90
27492;DHT22;14927;51.210;6.838;2023-08-08T07:44:32;19.80;63.50
27492;DHT22;14927;51.210;6.838;2023-08-08T07:47:18;19.80;62.60
27492;DHT22;14927;51.210;6.838;2023-08-08T07:50:03;19.80;62.50
27492;DHT22;14927;51.210;6.838;2023-08-08T07:52:49;19.90;62.40
27492;DHT22;14927;51.210;6.838;2023-08-08T07:55:33;19.90;62.40
27492;DHT22;14927;51.210;6.838;2023-08-08T07:58:18;20.00;62.40
27492;DHT22;14927;51.210;6.838;2023-08-08T08:01:03;20.00;62.30
27492;DHT22;14927;51.210;6.838;2023-08-08T08:03:48;20.10;62.30
27492;DHT22;14927;51.210;6.838;2023-08-08T08:06:33;20.10;62.20
27492;DHT22;14927;51.210;6.838;2023-08-08T08:09:17;20.10;61.90
27492;DHT22;14927;51.210;6.838;2023-08-08T08:12:02;20.20;61.80
27492;DHT22;14927;51.210;6.838;2023-08-08T08:14:47;20.30;61.60
27492;DHT22;14927;51.210;6.838;2023-08-08T08:17:32;20.40;62.20
27492;DHT22;14927;51.210;6.838;2023-08-08T08:20:18;20.40;61.10
27492;DHT22;14927;51.210;6.838;2023-08-08T08:23:02;20.40;61.00
27492;DHT22;14927;51.210;6.838;2023-08-08T08:25:47;20.40;61.00
27492;DHT22;14927;51.210;6.838;2023-08-08T08:28:33;20.50;60.90
27492;DHT22;14927;51.210;6.838;2023-08-08T08:31:17;20.50;60.90
27492;DHT22;14927;51.210;6.838;2023-08-08T08:34:02;20.60;60.90
27492;DHT22;14927;51.210;6.838;2023-08-08T08:36:47;20.60;60.90
27492;DHT22;14927;51.210;6.838;2023-08-08T08:39:32;20.60;60.80
27492;DHT22;14927;51.210;6.838;2023-08-08T08:42:17;20.70;60.70
27492;DHT22;14927;51.210;6.838;2023-08-08T08:45:03;20.70;60.40
27492;DHT22;14927;51.210;6.838;2023-08-08T08:47:49;20.80;60.00
27492;DHT22;14927;51.210;6.838;2023-08-08T08:50:36;20.90;60.00
27492;DHT22;14927;51.210;6.838;2023-08-08T08:53:21;20.90;59.80
27492;DHT22;14927;51.210;6.838;2023-08-08T08:56:07;20.90;59.80
27492;DHT22;14927;51.210;6.838;2023-08-08T08:58:52;20.90;59.70
27492;DHT22;14927;51.210;6.838;2023-08-08T09:01:37;21.00;59.60
27492;DHT22;14927;51.210;6.838;2023-08-08T09:04:23;21.00;59.40
27492;DHT22;14927;51.210;6.838;2023-08-08T09:07:08;21.10;59.30
27492;DHT22;14927;51.210;6.838;2023-08-08T09:09:54;21.00;59.10
27492;DHT22;14927;51.210;6.838;2023-08-08T09:12:38;21.10;59.30
27492;DHT22;14927;51.210;6.838;2023-08-08T09:15:23;21.10;59.30
27492;DHT22;14927;51.210;6.838;2023-08-08T09:18:08;21.10;59.20
27492;DHT22;14927;51.210;6.838;2023-08-08T09:20:53;21.10;59.30
27492;DHT22;14927;51.210;6.838;2023-08-08T09:23:37;21.10;59.20
27492;DHT22;14927;51.210;6.838;2023-08-08T09:26:22;21.10;59.20
27492;DHT22;14927;51.210;6.838;2023-08-08T09:29:08;21.10;59.30
27492;DHT22;14927;51.210;6.838;2023-08-08T09:31:53;21.20;59.30
27492;DHT22;14927;51.210;6.838;2023-08-08T09:34:41;21.20;59.20
27492;DHT22;14927;51.210;6.838;2023-08-08T09:37:27;21.20;59.20
27492;DHT22;14927;51.210;6.838;2023-08-08T09:40:12;21.30;59.10
27492;DHT22;14927;51.210;6.838;2023-08-08T09:42:57;21.40;59.10
27492;DHT22;14927;51.210;6.838;2023-08-08T09:45:47;21.40;59.10
27492;DHT22;14927;51.210;6.838;2023-08-08T09:48:32;21.40;58.90
27492;DHT22;14927;51.210;6.838;2023-08-08T09:51:17;21.50;58.80
27492;DHT22;14927;51.210;6.838;2023-08-08T09:54:04;21.60;58.80
27492;DHT22;14927;51.210;6.838;2023-08-08T09:56:51;21.60;58.60
27492;DHT22;14927;51.210;6.838;2023-08-08T09:59:35;21.70;58.50
27492;DHT22;14927;51.210;6.838;2023-08-08T10:02:21;21.70;58.20
27492;DHT22;14927;51.210;6.838;2023-08-08T10:05:06;21.80;58.00
27492;DHT22;14927;51.210;6.838;2023-08-08T10:07:53;21.90;57.90
27492;DHT22;14927;51.210;6.838;2023-08-08T10:10:39;21.90;57.60
27492;DHT22;14927;51.210;6.838;2023-08-08T10:13:26;22.00;57.40
27492;DHT22;14927;51.210;6.838;2023-08-08T10:16:10;22.00;57.10
27492;DHT22;14927;51.210;6.838;2023-08-08T10:18:56;22.10;56.90
27492;DHT22;14927;51.210;6.838;2023-08-08T10:21:44;22.10;56.80
27492;DHT22;14927;51.210;6.838;2023-08-08T10:24:33;22.10;56.70
27492;DHT22;14927;51.210;6.838;2023-08-08T10:27:34;22.20;56.00
27492;DHT22;14927;51.210;6.838;2023-08-08T10:30:20;22.20;56.00
27492;DHT22;14927;51.210;6.838;2023-08-08T10:33:04;22.20;56.80
27492;DHT22;14927;51.210;6.838;2023-08-08T10:38:48;22.10;58.80
27492;DHT22;14927;51.210;6.838;2023-08-08T10:41:50;22.10;59.60
27492;DHT22;14927;51.210;6.838;2023-08-08T10:44:40;22.10;60.80
27492;DHT22;14927;51.210;6.838;2023-08-08T10:47:45;22.00;60.60
27492;DHT22;14927;51.210;6.838;2023-08-08T10:50:30;22.00;60.70
27492;DHT22;14927;51.210;6.838;2023-08-08T10:53:15;21.90;59.80
27492;DHT22;14927;51.210;6.838;2023-08-08T10:56:02;21.90;59.60
27492;DHT22;14927;51.210;6.838;2023-08-08T10:58:48;21.80;60.10
27492;DHT22;14927;51.210;6.838;2023-08-08T11:01:33;21.80;60.20
27492;DHT22;14927;51.210;6.838;2023-08-08T11:04:21;21.80;60.10
27492;DHT22;14927;51.210;6.838;2023-08-08T11:07:07;21.80;59.70
27492;DHT22;14927;51.210;6.838;2023-08-08T11:09:53;21.70;59.50
27492;DHT22;14927;51.210;6.838;2023-08-08T11:12:39;21.70;59.60
27492;DHT22;14927;51.210;6.838;2023-08-08T11:15:25;21.70;59.60
27492;DHT22;14927;51.210;6.838;2023-08-08T11:18:11;21.70;59.40
27492;DHT22;14927;51.210;6.838;2023-08-08T11:20:56;21.70;59.40
27492;DHT22;14927;51.210;6.838;2023-08-08T11:23:47;21.70;59.10
27492;DHT22;14927;51.210;6.838;2023-08-08T11:26:32;21.70;59.60
27492;DHT22;14927;51.210;6.838;2023-08-08T11:29:17;21.70;59.50
27492;DHT22;14927;51.210;6.838;2023-08-08T11:32:02;21.80;59.20
27492;DHT22;14927;51.210;6.838;2023-08-08T11:34:48;21.80;59.20
27492;DHT22;14927;51.210;6.838;2023-08-08T11:37:33;21.80;58.90
27492;DHT22;14927;51.210;6.838;2023-08-08T11:40:18;21.80;58.50
27492;DHT22;14927;51.210;6.838;2023-08-08T11:43:04;21.90;58.10
27492;DHT22;14927;51.210;6.838;2023-08-08T11:45:48;21.90;57.60
27492;DHT22;14927;51.210;6.838;2023-08-08T11:48:34;21.90;57.40
27492;DHT22;14927;51.210;6.838;2023-08-08T11:51:18;21.90;57.20
27492;DHT22;14927;51.210;6.838;2023-08-08T11:54:04;21.90;56.90
27492;DHT22;14927;51.210;6.838;2023-08-08T11:56:49;22.00;56.60
27492;DHT22;14927;51.210;6.838;2023-08-08T11:59:33;21.90;56.80
27492;DHT22;14927;51.210;6.838;2023-08-08T12:02:20;21.90;56.90
27492;DHT22;14927;51.210;6.838;2023-08-08T12:05:06;21.90;56.60
27492;DHT22;14927;51.210;6.838;2023-08-08T12:07:51;21.90;56.30
27492;DHT22;14927;51.210;6.838;2023-08-08T12:10:36;21.90;56.10
27492;DHT22;14927;51.210;6.838;2023-08-08T12:13:24;21.90;56.20
27492;DHT22;14927;51.210;6.838;2023-08-08T12:16:13;21.90;56.10
27492;DHT22;14927;51.210;6.838;2023-08-08T12:19:01;21.90;56.40
27492;DHT22;14927;51.210;6.838;2023-08-08T12:21:47;21.80;56.10
27492;DHT22;14927;51.210;6.838;2023-08-08T12:24:31;21.80;56.10
27492;DHT22;14927;51.210;6.838;2023-08-08T12:27:17;21.70;55.90
27492;DHT22;14927;51.210;6.838;2023-08-08T12:30:01;21.70;56.30
27492;DHT22;14927;51.210;6.838;2023-08-08T12:32:46;21.60;55.80
27492;DHT22;14927;51.210;6.838;2023-08-08T12:35:30;21.60;55.60
27492;DHT22;14927;51.210;6.838;2023-08-08T12:38:15;21.50;55.70
27492;DHT22;14927;51.210;6.838;2023-08-08T12:41:01;21.50;55.60
27492;DHT22;14927;51.210;6.838;2023-08-08T12:43:46;21.50;55.50
27492;DHT22;14927;51.210;6.838;2023-08-08T12:46:31;21.40;56.50
27492;DHT22;14927;51.210;6.838;2023-08-08T12:49:16;21.50;56.00
27492;DHT22;14927;51.210;6.838;2023-08-08T12:52:00;21.50;56.30
27492;DHT22;14927;51.210;6.838;2023-08-08T12:54:46;21.60;56.50
27492;DHT22;14927;51.210;6.838;2023-08-08T12:57:31;21.70;56.90
27492;DHT22;14927;51.210;6.838;2023-08-08T13:00:16;21.90;56.70
27492;DHT22;14927;51.210;6.838;2023-08-08T13:03:01;22.00;56.50
27492;DHT22;14927;51.210;6.838;2023-08-08T13:05:46;22.20;56.20
27492;DHT22;14927;51.210;6.838;2023-08-08T13:08:31;22.30;55.90
27492;DHT22;14927;51.210;6.838;2023-08-08T13:11:16;22.40;55.50
27492;DHT22;14927;51.210;6.838;2023-08-08T13:14:01;22.50;55.20
27492;DHT22;14927;51.210;6.838;2023-08-08T13:16:46;22.60;54.50
27492;DHT22;14927;51.210;6.838;2023-08-08T13:19:31;22.70;54.40
27492;DHT22;14927;51.210;6.838;2023-08-08T13:22:16;22.70;53.90
27492;DHT22;14927;51.210;6.838;2023-08-08T13:25:01;22.80;54.10
27492;DHT22;14927;51.210;6.838;2023-08-08T13:27:45;22.90;54.30
27492;DHT22;14927;51.210;6.838;2023-08-08T13:30:32;23.00;54.50
27492;DHT22;14927;51.210;6.838;2023-08-08T13:33:18;23.10;53.70
27492;DHT22;14927;51.210;6.838;2023-08-08T13:36:03;23.30;53.50
27492;DHT22;14927;51.210;6.838;2023-08-08T13:38:48;23.40;53.00
27492;DHT22;14927;51.210;6.838;2023-08-08T13:41:32;23.50;52.70
27492;DHT22;14927;51.210;6.838;2023-08-08T13:44:17;23.50;52.20
27492;DHT22;14927;51.210;6.838;2023-08-08T13:47:02;23.60;52.10
27492;DHT22;14927;51.210;6.838;2023-08-08T13:49:47;23.60;51.60
27492;DHT22;14927;51.210;6.838;2023-08-08T13:52:32;23.60;51.80
27492;DHT22;14927;51.210;6.838;2023-08-08T13:55:17;23.70;52.20
27492;DHT22;14927;51.210;6.838;2023-08-08T13:58:02;23.70;52.40
27492;DHT22;14927;51.210;6.838;2023-08-08T14:00:46;23.90;52.60
27492;DHT22;14927;51.210;6.838;2023-08-08T14:03:31;24.10;52.50
27492;DHT22;14927;51.210;6.838;2023-08-08T14:06:16;24.40;52.20
27492;DHT22;14927;51.210;6.838;2023-08-08T14:09:00;24.60;51.70
27492;DHT22;14927;51.210;6.838;2023-08-08T14:11:45;24.90;50.70
27492;DHT22;14927;51.210;6.838;2023-08-08T14:14:30;25.10;49.80
27492;DHT22;14927;51.210;6.838;2023-08-08T14:17:14;25.30;48.90
27492;DHT22;14927;51.210;6.838;2023-08-08T14:20:00;25.40;48.00
27492;DHT22;14927;51.210;6.838;2023-08-08T14:22:45;25.50;47.30
27492;DHT22;14927;51.210;6.838;2023-08-08T14:25:32;25.50;46.70
27492;DHT22;14927;51.210;6.838;2023-08-08T14:28:16;25.60;46.30
27492;DHT22;14927;51.210;6.838;2023-08-08T14:31:01;25.50;46.10
27492;DHT22;14927;51.210;6.838;2023-08-08T14:33:46;25.50;46.20
27492;DHT22;14927;51.210;6.838;2023-08-08T14:36:31;25.50;45.80
27492;DHT22;14927;51.210;6.838;2023-08-08T14:39:15;25.40;45.70
27492;DHT22;14927;51.210;6.838;2023-08-08T14:42:01;25.40;45.70
27492;DHT22;14927;51.210;6.838;2023-08-08T14:44:46;25.30;45.90
27492;DHT22;14927;51.210;6.838;2023-08-08T14:47:31;25.30;46.30
27492;DHT22;14927;51.210;6.838;2023-08-08T14:50:16;25.20;46.30
27492;DHT22;14927;51.210;6.838;2023-08-08T14:53:01;25.10;46.20
27492;DHT22;14927;51.210;6.838;2023-08-08T14:55:45;25.10;46.40
27492;DHT22;14927;51.210;6.838;2023-08-08T14:58:31;25.10;46.20
27492;DHT22;14927;51.210;6.838;2023-08-08T15:01:18;25.00;46.30
27492;DHT22;14927;51.210;6.838;2023-08-08T15:04:03;25.00;46.20
27492;DHT22;14927;51.210;6.838;2023-08-08T15:06:48;25.00;46.00
27492;DHT22;14927;51.210;6.838;2023-08-08T15:09:32;25.00;46.00
27492;DHT22;14927;51.210;6.838;2023-08-08T15:12:17;25.00;45.50
27492;DHT22;14927;51.210;6.838;2023-08-08T15:15:02;24.90;45.30
27492;DHT22;14927;51.210;6.838;2023-08-08T15:17:50;24.90;44.80
27492;DHT22;14927;51.210;6.838;2023-08-08T15:20:35;24.80;45.20
27492;DHT22;14927;51.210;6.838;2023-08-08T15:23:20;24.80;45.10
27492;DHT22;14927;51.210;6.838;2023-08-08T15:26:05;24.80;44.90
27492;DHT22;14927;51.210;6.838;2023-08-08T15:28:50;24.80;44.70
27492;DHT22;14927;51.210;6.838;2023-08-08T15:31:35;24.80;45.00
27492;DHT22;14927;51.210;6.838;2023-08-08T15:34:20;24.70;44.80
27492;DHT22;14927;51.210;6.838;2023-08-08T15:37:04;24.70;44.90
27492;DHT22;14927;51.210;6.838;2023-08-08T15:39:49;24.70;45.20
27492;DHT22;14927;51.210;6.838;2023-08-08T15:42:34;24.70;45.00
27492;DHT22;14927;51.210;6.838;2023-08-08T15:45:19;24.70;44.60
27492;DHT22;14927;51.210;6.838;2023-08-08T15:48:04;24.70;44.30
27492;DHT22;14927;51.210;6.838;2023-08-08T15:50:49;24.70;44.20
27492;DHT22;14927;51.210;6.838;2023-08-08T15:53:34;24.60;44.10
27492;DHT22;14927;51.210;6.838;2023-08-08T15:56:18;24.60;44.00
27492;DHT22;14927;51.210;6.838;2023-08-08T15:59:04;24.60;43.90
27492;DHT22;14927;51.210;6.838;2023-08-08T16:01:49;24.60;43.80
27492;DHT22;14927;51.210;6.838;2023-08-08T16:04:33;24.60;43.40
27492;DHT22;14927;51.210;6.838;2023-08-08T16:07:18;24.60;43.30
27492;DHT22;14927;51.210;6.838;2023-08-08T16:10:03;24.50;43.00
27492;DHT22;14927;51.210;6.838;2023-08-08T16:12:48;24.50;43.10
27492;DHT22;14927;51.210;6.838;2023-08-08T16:15:33;24.60;43.10
27492;DHT22;14927;51.210;6.838;2023-08-08T16:18:18;24.50;42.90
27492;DHT22;14927;51.210;6.838;2023-08-08T16:21:02;24.50;42.90
27492;DHT22;14927;51.210;6.838;2023-08-08T16:23:47;24.50;43.10
27492;DHT22;14927;51.210;6.838;2023-08-08T16:26:32;24.40;43.20
27492;DHT22;14927;51.210;6.838;2023-08-08T16:29:17;24.40;43.10
27492;DHT22;14927;51.210;6.838;2023-08-08T16:32:01;24.40;43.00
27492;DHT22;14927;51.210;6.838;2023-08-08T16:34:46;24.40;43.40
27492;DHT22;14927;51.210;6.838;2023-08-08T16:37:31;24.40;43.30
27492;DHT22;14927;51.210;6.838;2023-08-08T16:40:16;24.40;43.50
27492;DHT22;14927;51.210;6.838;2023-08-08T16:43:01;24.40;43.20
27492;DHT22;14927;51.210;6.838;2023-08-08T16:45:46;24.40;43.30
27492;DHT22;14927;51.210;6.838;2023-08-08T16:48:31;24.40;43.50
27492;DHT22;14927;51.210;6.838;2023-08-08T16:51:16;24.40;43.40
27492;DHT22;14927;51.210;6.838;2023-08-08T16:54:00;24.40;43.40
27492;DHT22;14927;51.210;6.838;2023-08-08T16:56:45;24.40;43.50
27492;DHT22;14927;51.210;6.838;2023-08-08T16:59:30;24.40;43.20
27492;DHT22;14927;51.210;6.838;2023-08-08T17:02:15;24.30;43.20
27492;DHT22;14927;51.210;6.838;2023-08-08T17:04:59;24.30;43.30
27492;DHT22;14927;51.210;6.838;2023-08-08T17:07:44;24.30;43.40
27492;DHT22;14927;51.210;6.838;2023-08-08T17:10:28;24.20;43.60
27492;DHT22;14927;51.210;6.838;2023-08-08T17:13:13;24.20;44.70
27492;DHT22;14927;51.210;6.838;2023-08-08T17:15:58;24.20;44.60
27492;DHT22;14927;51.210;6.838;2023-08-08T17:18:43;24.00;44.90
27492;DHT22;14927;51.210;6.838;2023-08-08T17:21:28;24.10;45.00
27492;DHT22;14927;51.210;6.838;2023-08-08T17:24:13;24.00;45.10
27492;DHT22;14927;51.210;6.838;2023-08-08T17:27:01;24.00;45.00